Time;durP1;ratioP1;P1;durP2;ratioP2;P2;SDS_P1;SDS_P2;PMS_P1;PMS_P2;Temp;Humidity;BMP_temperature;BMP_pressure;BME280_temperature;BME280_humidity;BME280_pressure;Samples;Min_cycle;Max_cycle;Signal;HPM_P1;HPM_P2
2022/12/21 00:00:00;;;;;;;2.40;0.53;;;26.20;78.70;;;;;;4936739;29;20701;-70
2022/12/21 00:02:28;;;;;;;2.43;0.70;;;25.40;78.60;;;;;;4936705;29;20681;-69
2022/12/21 00:04:56;;;;;;;1.40;0.50;;;25.70;78.80;;;;;;4937195;29;20181;-69
2022/12/21 00:07:23;;;;;;;3.43;0.80;;;26.80;85.70;;;;;;4936543;29;20264;-70
2022/12/21 00:09:51;;;;;;;2.83;0.80;;;27.60;78.00;;;;;;4935954;29;20228;-70
2022/12/21 00:12:19;;;;;;;2.10;0.53;;;27.70;84.10;;;;;;4936739;29;20193;-69
2022/12/21 00:14:47;;;;;;;1.23;0.57;;;28.00;78.90;;;;;;4936551;29;20176;-69
2022/12/21 00:17:15;;;;;;;1.40;0.50;;;27.80;64.30;;;;;;4936791;29;20187;-70
2022/12/21 00:19:44;;;;;;;2.10;0.43;;;27.30;62.90;;;;;;4936336;29;20180;-70
2022/12/21 00:22:12;;;;;;;4.07;0.70;;;27.00;67.30;;;;;;4936354;29;20661;-70
2022/12/21 00:24:40;;;;;;;1.00;0.43;;;27.30;64.20;;;;;;4936573;29;20975;-70
2022/12/21 00:27:07;;;;;;;2.27;0.80;;;27.40;60.20;;;;;;4935543;29;20735;-70
2022/12/21 00:29:35;;;;;;;1.67;0.50;;;27.50;63.60;;;;;;4935353;29;20181;-72
2022/12/21 00:32:03;;;;;;;1.70;0.57;;;27.20;65.90;;;;;;4936681;29;20184;-71
2022/12/21 00:34:30;;;;;;;2.60;0.73;;;27.50;59.90;;;;;;4936641;29;20638;-71
2022/12/21 00:36:58;;;;;;;0.60;0.43;;;28.00;62.60;;;;;;4935951;29;20261;-70
2022/12/21 00:39:26;;;;;;;2.03;0.50;;;28.50;63.60;;;;;;4935927;29;20199;-71
2022/12/21 00:41:54;;;;;;;3.27;0.57;;;27.70;63.20;;;;;;4936389;29;20291;-70
2022/12/21 00:44:22;;;;;;;4.97;0.80;;;26.90;64.60;;;;;;4934751;29;20173;-71
2022/12/21 00:46:49;;;;;;;4.30;0.83;;;26.70;67.20;;;;;;4934958;29;20306;-70
2022/12/21 00:49:17;;;;;;;4.10;0.57;;;26.50;67.70;;;;;;4935784;29;20193;-70
2022/12/21 00:51:45;;;;;;;2.47;0.43;;;27.00;74.40;;;;;;4934443;29;20317;-71
2022/12/21 00:54:13;;;;;;;4.03;0.53;;;26.40;66.90;;;;;;4936184;29;20187;-70
2022/12/21 00:56:40;;;;;;;2.50;0.50;;;25.70;67.80;;;;;;4935733;29;20255;-70
2022/12/21 00:59:08;;;;;;;0.93;0.60;;;25.80;71.40;;;;;;4935773;29;20541;-70
2022/12/21 01:01:36;;;;;;;2.97;0.70;;;26.20;73.10;;;;;;4935994;29;20710;-70
2022/12/21 01:04:04;;;;;;;2.23;0.60;;;27.00;65.90;;;;;;4936058;29;20207;-70
2022/12/21 01:06:34;;;;;;;2.83;1.00;;;27.30;64.80;;;;;;4935402;29;20220;-72
2022/12/21 01:09:03;;;;;;;2.10;0.70;;;27.60;62.10;;;;;;4934776;29;20224;-70
2022/12/21 01:11:31;;;;;;;2.87;0.60;;;27.90;60.80;;;;;;4935291;29;20256;-70
2022/12/21 01:13:59;;;;;;;0.87;0.50;;;28.20;60.40;;;;;;4918604;29;20276;-70
2022/12/21 01:16:30;;;;;;;2.67;0.80;;;28.20;62.90;;;;;;4935361;29;20189;-71
2022/12/21 01:19:01;;;;;;;0.73;0.40;;;27.70;61.60;;;;;;4935751;29;20279;-71
2022/12/21 01:21:31;;;;;;;1.30;0.40;;;27.80;56.00;;;;;;4934877;29;20287;-72
2022/12/21 01:24:00;;;;;;;2.23;0.47;;;27.90;58.50;;;;;;4935439;29;20257;-71
2022/12/21 01:26:28;;;;;;;1.27;0.40;;;28.00;63.30;;;;;;4935232;29;20200;-70
2022/12/21 01:28:56;;;;;;;1.80;0.60;;;27.70;54.60;;;;;;4935393;29;20252;-70
2022/12/21 01:31:25;;;;;;;1.87;0.50;;;27.90;52.90;;;;;;4935620;29;20241;-71
2022/12/21 01:33:52;;;;;;;0.87;0.70;;;27.90;58.20;;;;;;4935472;29;20693;-70
2022/12/21 01:36:20;;;;;;;3.70;0.77;;;27.90;53.70;;;;;;4934444;29;20189;-69
2022/12/21 01:38:49;;;;;;;1.63;0.30;;;27.80;59.70;;;;;;4935053;29;20228;-70
2022/12/21 01:41:23;;;;;;;1.57;0.50;;;28.10;53.80;;;;;;4935222;29;20227;-69
2022/12/21 01:43:52;;;;;;;1.30;0.53;;;28.00;53.30;;;;;;4934139;29;20198;-69
2022/12/21 01:46:38;;;;;;;0.40;0.40;;;27.90;57.60;;;;;;4934901;29;20187;-70
2022/12/21 01:49:17;;;;;;;1.47;0.73;;;28.20;52.50;;;;;;4935124;29;20192;-69
2022/12/21 01:51:52;;;;;;;1.10;0.60;;;28.30;49.40;;;;;;4934601;29;20271;-69
2022/12/21 01:54:31;;;;;;;1.43;0.60;;;28.30;51.30;;;;;;4935173;29;20199;-70
2022/12/21 01:57:02;;;;;;;5.27;1.30;;;28.40;50.80;;;;;;4934024;29;20335;-69
2022/12/21 01:59:40;;;;;;;2.03;0.60;;;28.20;54.70;;;;;;4934931;29;20192;-69
2022/12/21 02:02:31;;;;;;;3.43;0.60;;;28.30;54.30;;;;;;4934336;29;20618;-69
2022/12/21 02:05:23;;;;;;;1.43;0.60;;;27.60;59.60;;;;;;4934383;29;20185;-69
2022/12/21 02:07:53;;;;;;;3.47;0.93;;;27.50;59.40;;;;;;4934258;29;20254;-70
2022/12/21 02:10:21;;;;;;;2.53;0.70;;;27.50;56.70;;;;;;4934679;29;20195;-70
2022/12/21 02:12:55;;;;;;;3.10;0.60;;;27.40;57.40;;;;;;4934385;29;20199;-70
2022/12/21 02:15:33;;;;;;;2.20;0.60;;;26.80;59.00;;;;;;4935028;29;20184;-69
2022/12/21 02:18:26;;;;;;;2.27;1.00;;;26.50;61.10;;;;;;4934832;29;20327;-69
2022/12/21 02:21:15;;;;;;;3.33;0.50;;;26.90;61.60;;;;;;4934711;29;20189;-71
2022/12/21 02:24:31;;;;;;;2.73;0.57;;;26.70;64.50;;;;;;4934677;29;20271;-72
2022/12/21 02:27:39;;;;;;;9.70;0.67;;;26.70;71.00;;;;;;4934480;29;20208;-70
2022/12/21 02:30:13;;;;;;;3.27;0.87;;;27.20;67.20;;;;;;4907776;29;20212;-69
2022/12/21 02:33:02;;;;;;;1.80;0.90;;;27.70;75.90;;;;;;4934246;29;20260;-73
2022/12/21 02:35:53;;;;;;;2.97;0.57;;;27.80;72.70;;;;;;4934017;29;20180;-70
2022/12/21 02:38:43;;;;;;;2.00;0.50;;;27.70;65.40;;;;;;4934913;29;20650;-70
2022/12/21 02:41:23;;;;;;;2.10;0.57;;;27.20;74.60;;;;;;4934720;29;20176;-71
2022/12/21 02:44:24;;;;;;;1.80;0.60;;;27.10;64.50;;;;;;4934705;29;20271;-70
2022/12/21 02:46:58;;;;;;;2.67;0.60;;;26.90;69.10;;;;;;4934730;29;20205;-70
2022/12/21 02:49:38;;;;;;;0.93;0.50;;;26.90;69.10;;;;;;4934217;29;20240;-70
2022/12/21 02:52:57;;;;;;;2.17;0.60;;;27.30;77.10;;;;;;4936647;29;20191;-73
2022/12/21 02:55:27;;;;;;;2.80;0.90;;;27.20;69.40;;;;;;4909497;29;20232;-68
2022/12/21 02:58:19;;;;;;;1.20;0.50;;;27.10;72.70;;;;;;4937611;29;20250;-69
2022/12/21 03:00:53;;;;;;;3.47;0.43;;;27.30;77.10;;;;;;4938603;29;20646;-68
2022/12/21 03:03:50;;;;;;;4.50;0.67;;;27.40;72.80;;;;;;4937877;29;20257;-71
2022/12/21 03:06:45;;;;;;;3.23;0.67;;;27.70;71.40;;;;;;4938483;29;20180;-68
2022/12/21 03:09:51;;;;;;;1.40;0.53;;;27.40;69.40;;;;;;4938327;29;20710;-67
2022/12/21 03:12:49;;;;;;;1.97;0.50;;;27.20;73.80;;;;;;4937097;29;20275;-68
2022/12/21 03:15:34;;;;;;;2.87;0.70;;;27.50;72.60;;;;;;4936761;29;20592;-69
2022/12/21 03:18:19;;;;;;;2.33;0.73;;;27.10;66.60;;;;;;4938386;29;20172;-70
2022/12/21 03:20:57;;;;;;;4.73;0.73;;;26.80;68.80;;;;;;4938296;29;20710;-69
2022/12/21 03:23:39;;;;;;;1.87;0.70;;;26.70;85.80;;;;;;4937793;29;20192;-69
2022/12/21 03:26:25;;;;;;;5.47;1.00;;;27.00;78.30;;;;;;4937439;29;20173;-69
2022/12/21 03:28:56;;;;;;;3.53;0.70;;;27.30;69.80;;;;;;4938142;29;20240;-69
2022/12/21 03:31:28;;;;;;;1.47;0.60;;;27.30;74.90;;;;;;4937928;29;20628;-68
2022/12/21 03:34:05;;;;;;;3.87;0.57;;;27.60;83.40;;;;;;4937030;29;20191;-68
2022/12/21 03:36:44;;;;;;;1.43;0.50;;;27.30;65.90;;;;;;4920637;29;20180;-68
2022/12/21 03:39:15;;;;;;;1.83;0.60;;;27.30;78.10;;;;;;4937969;29;20180;-68
2022/12/21 03:42:01;;;;;;;1.93;0.60;;;27.50;80.50;;;;;;4937257;29;20674;-68
2022/12/21 03:44:35;;;;;;;2.73;0.60;;;27.50;73.00;;;;;;4937081;29;20243;-71
2022/12/21 03:47:13;;;;;;;1.97;0.63;;;27.70;69.70;;;;;;4937371;29;20673;-68
2022/12/21 03:50:06;;;;;;;3.60;0.80;;;27.80;85.60;;;;;;4937239;29;20188;-69
2022/12/21 03:52:42;;;;;;;0.80;0.60;;;28.10;68.40;;;;;;4937240;29;20289;-69
2022/12/21 03:55:42;;;;;;;2.07;0.60;;;27.90;67.70;;;;;;4937642;29;20207;-68
2022/12/21 03:58:11;;;;;;;2.90;0.80;;;27.70;73.30;;;;;;4934552;29;20251;-67
2022/12/21 04:00:51;;;;;;;3.27;0.83;;;27.40;73.00;;;;;;4937246;29;20662;-67
2022/12/21 04:03:31;;;;;;;2.53;0.80;;;27.60;75.30;;;;;;4924702;29;20188;-68
2022/12/21 04:06:05;;;;;;;1.70;0.80;;;27.50;71.30;;;;;;4937253;29;20638;-66
2022/12/21 04:08:33;;;;;;;1.80;0.40;;;27.50;73.20;;;;;;4935619;29;20565;-68
2022/12/21 04:11:01;;;;;;;2.20;0.70;;;27.30;73.60;;;;;;4935988;29;20669;-68
2022/12/21 04:13:29;;;;;;;3.93;0.70;;;27.30;71.80;;;;;;4926016;29;20212;-68
2022/12/21 04:16:05;;;;;;;4.63;0.60;;;27.60;72.60;;;;;;4936787;29;20181;-68
2022/12/21 04:21:20;;;;;;;2.07;0.57;;;27.80;70.40;;;;;;4936788;29;20203;-67
2022/12/21 04:29:19;;;;;;;7.03;0.90;;;27.50;63.80;;;;;;4936435;29;20724;-70
2022/12/21 04:31:47;;;;;;;4.80;0.60;;;27.30;67.10;;;;;;4936781;29;20184;-68
2022/12/21 04:34:15;;;;;;;4.20;0.80;;;27.10;65.40;;;;;;4934799;29;20184;-67
2022/12/21 04:39:28;;;;;;;3.20;0.50;;;27.30;63.00;;;;;;4936460;29;20610;-68
2022/12/21 04:41:56;;;;;;;12.70;0.90;;;26.90;63.10;;;;;;4936031;29;20268;-68
2022/12/21 04:44:24;;;;;;;2.40;0.60;;;27.00;69.40;;;;;;4936025;29;20244;-67
2022/12/21 04:46:52;;;;;;;2.47;0.50;;;27.00;67.60;;;;;;4919006;29;20714;-69
2022/12/21 04:49:20;;;;;;;2.23;0.67;;;26.90;71.50;;;;;;4935946;29;20196;-70
2022/12/21 04:51:48;;;;;;;1.47;0.60;;;26.90;67.50;;;;;;4937215;29;20181;-69
2022/12/21 04:54:16;;;;;;;1.43;0.73;;;26.80;73.80;;;;;;4936381;29;20184;-69
2022/12/21 04:56:43;;;;;;;7.33;0.90;;;26.80;71.40;;;;;;4935206;29;20224;-68
2022/12/21 04:59:11;;;;;;;4.60;0.77;;;26.90;82.10;;;;;;4936329;29;20659;-71
2022/12/21 05:01:40;;;;;;;4.67;0.87;;;27.10;76.90;;;;;;4935961;29;20530;-68
2022/12/21 05:04:08;;;;;;;1.97;0.50;;;27.10;71.70;;;;;;4934688;29;20212;-68
2022/12/21 05:06:35;;;;;;;3.13;0.57;;;27.00;73.20;;;;;;4935615;29;20184;-68
2022/12/21 05:09:03;;;;;;;5.20;1.00;;;26.90;79.00;;;;;;4935824;29;20275;-71
2022/12/21 05:11:34;;;;;;;4.23;0.70;;;26.80;79.50;;;;;;4935617;29;20169;-67
2022/12/21 05:14:02;;;;;;;2.60;0.70;;;26.30;83.60;;;;;;4934961;29;20193;-68
2022/12/21 05:16:29;;;;;;;3.70;0.90;;;26.30;86.10;;;;;;4935464;29;20655;-68
2022/12/21 05:18:57;;;;;;;1.80;0.63;;;26.50;87.40;;;;;;4935361;29;20267;-66
2022/12/21 05:21:25;;;;;;;4.00;0.73;;;26.70;86.80;;;;;;4935627;29;20189;-68
2022/12/21 05:23:53;;;;;;;3.87;1.10;;;26.80;87.60;;;;;;4935638;29;20187;-68
2022/12/21 05:26:21;;;;;;;1.87;0.60;;;26.50;90.00;;;;;;4933529;29;20614;-68
2022/12/21 05:28:49;;;;;;;2.60;0.90;;;26.50;88.80;;;;;;4935593;29;20562;-69
2022/12/21 05:31:17;;;;;;;3.27;1.03;;;26.80;88.60;;;;;;4935390;29;20815;-68
2022/12/21 05:33:45;;;;;;;3.63;0.63;;;27.10;89.80;;;;;;4935300;29;20204;-67
2022/12/21 05:36:15;;;;;;;3.90;0.90;;;26.70;84.10;;;;;;4935528;29;20211;-69
2022/12/21 05:38:43;;;;;;;3.30;0.57;;;26.80;89.30;;;;;;4935156;29;20192;-72
2022/12/21 05:41:16;;;;;;;1.57;0.60;;;26.70;91.40;;;;;;4933851;29;20340;-75
2022/12/21 05:43:44;;;;;;;4.53;0.80;;;26.70;87.90;;;;;;4923465;29;20192;-73
2022/12/21 05:46:13;;;;;;;2.03;0.53;;;26.70;88.10;;;;;;4936735;29;20197;-70
2022/12/21 05:48:41;;;;;;;2.30;0.57;;;26.80;89.50;;;;;;4934742;29;20270;-76
2022/12/21 05:51:10;;;;;;;2.57;0.60;;;26.80;90.90;;;;;;4933086;29;20669;-76
2022/12/21 05:53:42;;;;;;;4.17;0.73;;;26.40;86.10;;;;;;4935067;29;20189;-73
2022/12/21 05:56:11;;;;;;;4.70;0.80;;;26.00;92.10;;;;;;4935137;29;20185;-70
2022/12/21 05:58:44;;;;;;;2.93;0.80;;;25.80;90.70;;;;;;4934813;29;20216;-71
2022/12/21 06:01:13;;;;;;;2.10;0.67;;;25.70;91.10;;;;;;4935074;29;20267;-70
2022/12/21 06:03:42;;;;;;;5.90;1.10;;;25.60;92.00;;;;;;4935244;29;20595;-73
2022/12/21 06:06:13;;;;;;;3.33;0.60;;;25.60;93.20;;;;;;4935299;29;20279;-74
2022/12/21 06:08:41;;;;;;;4.10;0.90;;;25.30;93.80;;;;;;4933990;29;20750;-74
2022/12/21 06:11:12;;;;;;;4.17;0.77;;;25.20;93.80;;;;;;4934812;29;20193;-74
2022/12/21 06:13:39;;;;;;;1.60;0.63;;;25.20;95.50;;;;;;4941135;29;20356;-70
2022/12/21 06:16:10;;;;;;;2.83;0.70;;;25.00;95.00;;;;;;4919136;29;20659;-70
2022/12/21 06:18:39;;;;;;;2.30;0.70;;;25.10;93.90;;;;;;4935036;29;20185;-72
2022/12/21 06:21:09;;;;;;;1.67;0.63;;;25.20;96.30;;;;;;4935015;29;20191;-70
2022/12/21 06:23:38;;;;;;;1.03;0.47;;;25.40;95.50;;;;;;4934423;29;20701;-71
2022/12/21 06:26:07;;;;;;;2.17;0.80;;;25.50;94.60;;;;;;4932780;29;20203;-69
2022/12/21 06:28:36;;;;;;;1.17;0.60;;;25.00;94.00;;;;;;4934779;29;20259;-71
2022/12/21 06:31:11;;;;;;;2.20;0.70;;;24.80;95.60;;;;;;4934539;29;20205;-70
2022/12/21 06:33:39;;;;;;;1.67;0.73;;;24.80;96.30;;;;;;4934824;29;20670;-70
2022/12/21 06:36:08;;;;;;;2.67;0.60;;;24.40;96.80;;;;;;4932804;29;20526;-70
2022/12/21 06:38:37;;;;;;;3.90;0.77;;;24.30;98.10;;;;;;4934347;29;20269;-71
2022/12/21 06:41:07;;;;;;;2.80;0.70;;;24.20;96.60;;;;;;4934528;29;20188;-71
2022/12/21 06:43:37;;;;;;;5.37;0.80;;;24.20;98.30;;;;;;4933477;29;20653;-69
2022/12/21 06:46:13;;;;;;;5.10;0.90;;;24.30;97.60;;;;;;4932908;29;20254;-70
2022/12/21 06:48:42;;;;;;;1.97;0.67;;;24.40;97.70;;;;;;4933037;29;20237;-71
2022/12/21 06:51:15;;;;;;;2.27;0.70;;;24.40;98.30;;;;;;4934689;29;20236;-69
2022/12/21 06:53:45;;;;;;;2.57;0.60;;;24.40;97.90;;;;;;4934365;29;20694;-70
2022/12/21 06:56:17;;;;;;;1.43;0.50;;;24.40;97.00;;;;;;4934045;29;20185;-71
2022/12/21 06:58:46;;;;;;;3.83;0.70;;;24.00;97.80;;;;;;4934059;29;20235;-70
2022/12/21 07:01:19;;;;;;;1.17;0.53;;;23.50;99.60;;;;;;4933897;29;20642;-70
2022/12/21 07:03:47;;;;;;;1.47;0.57;;;23.30;99.90;;;;;;4934345;29;20180;-70
2022/12/21 07:06:17;;;;;;;2.27;0.80;;;23.30;99.90;;;;;;4934501;29;20192;-71
2022/12/21 07:08:48;;;;;;;2.37;0.53;;;23.50;99.90;;;;;;4933902;29;20314;-70
2022/12/21 07:11:18;;;;;;;2.17;0.60;;;23.50;99.90;;;;;;4934428;29;20588;-70
2022/12/21 07:13:48;;;;;;;4.10;0.70;;;23.50;99.90;;;;;;4934318;29;20196;-71
2022/12/21 07:16:16;;;;;;;3.20;0.77;;;23.50;99.90;;;;;;4933310;29;20181;-70
2022/12/21 07:18:44;;;;;;;2.10;0.63;;;23.40;99.90;;;;;;4934468;29;20173;-69
2022/12/21 07:21:17;;;;;;;2.17;0.50;;;23.10;99.90;;;;;;4933018;29;20184;-69
2022/12/21 07:23:46;;;;;;;1.87;0.60;;;22.80;99.90;;;;;;4933904;29;20181;-72
2022/12/21 07:26:20;;;;;;;3.50;0.80;;;22.60;99.90;;;;;;4937981;29;20570;-69
2022/12/21 07:28:48;;;;;;;1.87;0.53;;;22.50;99.90;;;;;;4945206;29;20564;-70
2022/12/21 07:31:21;;;;;;;2.63;0.60;;;22.40;99.90;;;;;;4933670;29;20200;-71
2022/12/21 07:33:50;;;;;;;4.77;0.97;;;22.30;99.90;;;;;;4934315;29;20682;-70
2022/12/21 07:36:19;;;;;;;1.00;0.70;;;22.10;99.90;;;;;;4935854;29;20185;-69
2022/12/21 07:38:46;;;;;;;2.23;0.90;;;22.00;99.90;;;;;;4942188;29;20309;-72
2022/12/21 07:41:16;;;;;;;3.70;0.83;;;22.00;99.90;;;;;;4926128;29;20308;-70
2022/12/21 07:43:45;;;;;;;5.57;1.00;;;21.90;99.90;;;;;;4936452;29;20195;-69
2022/12/21 07:46:13;;;;;;;1.70;0.73;;;21.90;99.90;;;;;;4937183;29;20193;-73
2022/12/21 07:48:41;;;;;;;4.07;0.80;;;21.90;99.90;;;;;;4937179;29;20216;-70
2022/12/21 07:51:09;;;;;;;3.93;0.97;;;22.00;99.90;;;;;;4937573;29;20192;-71
2022/12/21 07:53:37;;;;;;;2.67;0.80;;;22.00;99.90;;;;;;4937165;29;20522;-70
2022/12/21 07:56:16;;;;;;;3.47;0.80;;;22.00;99.90;;;;;;4937170;29;20239;-70
2022/12/21 07:58:45;;;;;;;1.10;0.50;;;21.70;99.90;;;;;;4936032;29;20199;-71
2022/12/21 08:01:16;;;;;;;3.37;1.00;;;21.50;99.90;;;;;;4936966;29;20267;-70
2022/12/21 08:03:45;;;;;;;7.60;0.90;;;21.40;99.90;;;;;;4936200;29;20189;-71
2022/12/21 08:06:14;;;;;;;3.10;0.70;;;21.20;99.90;;;;;;4935996;29;20275;-74
2022/12/21 08:08:42;;;;;;;3.33;0.60;;;21.20;99.90;;;;;;4919346;29;20224;-75
2022/12/21 08:11:16;;;;;;;1.73;0.60;;;21.10;99.90;;;;;;4936001;29;20192;-75
2022/12/21 08:13:45;;;;;;;2.70;1.20;;;21.00;99.90;;;;;;4920148;29;20236;-76
2022/12/21 08:16:15;;;;;;;2.67;0.70;;;21.00;99.90;;;;;;4919656;29;20647;-75
2022/12/21 08:18:44;;;;;;;0.60;0.60;;;20.90;99.90;;;;;;4936901;29;20177;-75
2022/12/21 08:21:12;;;;;;;1.53;0.80;;;20.90;99.90;;;;;;4935505;29;20189;-74
2022/12/21 08:23:43;;;;;;;3.63;0.70;;;20.80;99.90;;;;;;4935427;29;20282;-77
2022/12/21 08:26:12;;;;;;;1.83;0.80;;;20.90;99.90;;;;;;4920520;29;20187;-76
2022/12/21 08:28:41;;;;;;;5.20;1.33;;;20.80;99.90;;;;;;4935102;29;20280;-76
2022/12/21 08:31:15;;;;;;;2.43;0.80;;;20.70;99.90;;;;;;4919963;29;20492;-73
2022/12/21 08:33:45;;;;;;;3.37;0.70;;;20.60;99.90;;;;;;4935550;29;20217;-76
2022/12/21 08:36:18;;;;;;;3.60;0.80;;;20.50;99.90;;;;;;4935043;29;20191;-75
2022/12/21 08:38:46;;;;;;;1.20;0.63;;;20.30;99.90;;;;;;4935221;29;20571;-73
2022/12/21 08:41:14;;;;;;;3.63;0.83;;;20.30;99.90;;;;;;4935253;29;20707;-68
2022/12/21 08:43:42;;;;;;;5.00;1.20;;;20.20;99.90;;;;;;4919654;29;20635;-76
2022/12/21 08:46:12;;;;;;;2.33;1.00;;;20.20;99.90;;;;;;4936123;29;20180;-72
2022/12/21 08:48:40;;;;;;;1.53;0.70;;;20.10;99.90;;;;;;4933788;29;20697;-73
2022/12/21 08:51:08;;;;;;;2.90;0.80;;;20.10;99.90;;;;;;4936137;29;20248;-72
2022/12/21 08:53:38;;;;;;;1.73;0.77;;;20.00;99.90;;;;;;4935986;29;20233;-71
2022/12/21 08:56:06;;;;;;;2.73;0.70;;;19.90;99.90;;;;;;4934465;29;20191;-72
2022/12/21 08:58:34;;;;;;;3.50;0.73;;;19.90;99.90;;;;;;4935994;29;20191;-71
2022/12/21 09:01:02;;;;;;;1.80;0.90;;;19.80;99.90;;;;;;4935618;29;20635;-71
2022/12/21 09:03:30;;;;;;;4.20;0.90;;;19.70;99.90;;;;;;4935682;29;20277;-70
2022/12/21 09:06:03;;;;;;;4.43;0.63;;;19.60;99.90;;;;;;4918864;29;20184;-69
2022/12/21 09:08:32;;;;;;;3.37;0.90;;;19.50;99.90;;;;;;4935579;29;20216;-69
2022/12/21 09:11:06;;;;;;;3.77;0.80;;;19.40;99.90;;;;;;4935261;29;20188;-74
2022/12/21 09:13:35;;;;;;;1.97;0.70;;;19.30;99.90;;;;;;4904587;29;20220;-74
2022/12/21 09:16:10;;;;;;;1.80;0.60;;;19.30;99.90;;;;;;4936716;29;20206;-73
2022/12/21 09:18:38;;;;;;;2.23;0.80;;;19.20;99.90;;;;;;4936910;29;20186;-71
2022/12/21 09:21:06;;;;;;;3.50;0.57;;;19.20;99.90;;;;;;4936793;29;20215;-73
2022/12/21 09:23:34;;;;;;;1.80;0.90;;;19.10;99.90;;;;;;4936383;29;20197;-72
2022/12/21 09:26:04;;;;;;;2.30;0.70;;;19.10;99.90;;;;;;4937142;29;20202;-74
2022/12/21 09:28:32;;;;;;;4.30;0.70;;;19.00;99.90;;;;;;4936671;29;20311;-75
2022/12/21 09:31:17;;;;;;;4.40;0.90;;;19.00;99.90;;;;;;4936454;29;20187;-75
2022/12/21 09:33:46;;;;;;;4.80;0.80;;;19.00;99.90;;;;;;4937196;29;20190;-74
2022/12/21 09:36:15;;;;;;;1.63;0.77;;;18.90;99.90;;;;;;4936483;29;20176;-75
2022/12/21 09:38:44;;;;;;;1.60;0.73;;;18.90;99.90;;;;;;4936432;29;20256;-74
2022/12/21 09:41:36;;;;;;;2.00;0.50;;;18.90;99.90;;;;;;4936326;29;20186;-74
2022/12/21 09:44:19;;;;;;;1.83;0.80;;;18.80;99.90;;;;;;4936288;29;20185;-73
2022/12/21 09:46:50;;;;;;;5.20;1.07;;;18.80;99.90;;;;;;4936359;29;20173;-74
2022/12/21 09:49:22;;;;;;;1.07;0.70;;;18.70;99.90;;;;;;4935347;29;20180;-73
2022/12/21 09:51:55;;;;;;;3.03;0.60;;;18.60;99.90;;;;;;4926222;29;20608;-74
2022/12/21 09:54:38;;;;;;;2.87;0.77;;;18.60;99.90;;;;;;4935873;29;20177;-75
2022/12/21 09:57:10;;;;;;;3.13;0.93;;;18.50;99.90;;;;;;4935985;29;20322;-73
2022/12/21 09:59:38;;;;;;;4.50;1.00;;;18.50;99.90;;;;;;4929935;29;20190;-72
2022/12/21 10:02:56;;;;;;;2.93;1.00;;;18.40;99.90;;;;;;4936343;29;20214;-75
2022/12/21 10:05:56;;;;;;;3.03;1.00;;;18.40;99.90;;;;;;4853783;29;20282;-73
2022/12/21 10:08:53;;;;;;;5.73;1.20;;;18.40;99.90;;;;;;4902702;29;20224;-73
2022/12/21 10:11:43;;;;;;;2.10;0.83;;;18.40;99.90;;;;;;4934371;29;20220;-74
2022/12/21 10:14:29;;;;;;;2.83;1.13;;;18.40;99.90;;;;;;4935723;29;20180;-73
2022/12/21 10:17:22;;;;;;;4.37;0.70;;;18.40;99.90;;;;;;4936096;29;20193;-75
2022/12/21 10:19:59;;;;;;;2.67;1.00;;;18.30;99.90;;;;;;4936572;29;20275;-74
2022/12/21 10:22:36;;;;;;;2.93;1.27;;;18.20;99.90;;;;;;4936840;29;20169;-72
2022/12/21 10:25:14;;;;;;;3.97;1.10;;;18.30;99.90;;;;;;4934663;29;20512;-74
2022/12/21 10:28:02;;;;;;;2.27;0.90;;;18.20;99.90;;;;;;4936247;29;20216;-72
2022/12/21 10:30:33;;;;;;;5.60;1.07;;;18.20;99.90;;;;;;4935710;29;20199;-73
2022/12/21 10:33:01;;;;;;;2.63;0.70;;;18.10;99.90;;;;;;4935675;29;20186;-74
2022/12/21 10:35:38;;;;;;;3.30;0.93;;;18.30;99.90;;;;;;4935301;29;20177;-75
2022/12/21 10:38:19;;;;;;;7.30;1.50;;;18.40;99.90;;;;;;4935812;29;20187;-73
2022/12/21 10:40:52;;;;;;;3.57;0.87;;;18.30;99.90;;;;;;4934647;29;20610;-73
2022/12/21 10:43:22;;;;;;;1.77;0.70;;;18.40;99.90;;;;;;4935350;29;20188;-72
2022/12/21 10:45:50;;;;;;;2.03;0.80;;;18.40;99.90;;;;;;4935241;29;20256;-74
2022/12/21 10:48:19;;;;;;;3.03;0.90;;;18.30;99.90;;;;;;4935205;29;20212;-75
2022/12/21 10:50:50;;;;;;;4.73;1.00;;;18.30;99.90;;;;;;4935647;29;20605;-73
2022/12/21 10:53:24;;;;;;;5.33;1.10;;;18.30;99.90;;;;;;4935820;29;20177;-74
2022/12/21 10:56:01;;;;;;;9.53;0.90;;;18.30;99.90;;;;;;4935133;29;20213;-73
2022/12/21 10:58:33;;;;;;;5.40;1.07;;;18.20;99.90;;;;;;4935527;29;20193;-74
2022/12/21 11:01:16;;;;;;;1.90;0.83;;;18.20;99.90;;;;;;4935807;29;20239;-73
2022/12/21 11:03:43;;;;;;;7.40;1.07;;;18.00;99.90;;;;;;4934626;29;20188;-73
2022/12/21 11:06:19;;;;;;;5.03;0.93;;;17.90;99.90;;;;;;4935151;29;20534;-73
2022/12/21 11:08:52;;;;;;;4.20;0.70;;;17.90;99.90;;;;;;4935259;29;20223;-72
2022/12/21 11:11:39;;;;;;;1.53;0.80;;;17.90;99.90;;;;;;4935370;29;20204;-72
2022/12/21 11:14:16;;;;;;;3.43;0.90;;;17.90;99.90;;;;;;4921013;29;20695;-74
2022/12/21 11:16:48;;;;;;;5.53;1.00;;;17.80;99.90;;;;;;4920180;29;20271;-72
2022/12/21 11:19:22;;;;;;;3.07;0.83;;;17.70;99.90;;;;;;4920353;29;20173;-73
2022/12/21 11:21:57;;;;;;;4.27;0.90;;;17.70;99.90;;;;;;4920033;29;20191;-73
2022/12/21 11:24:42;;;;;;;3.40;1.00;;;17.70;99.90;;;;;;4932354;29;20187;-73
2022/12/21 11:27:13;;;;;;;3.93;0.90;;;17.60;99.90;;;;;;4939045;29;20275;-74
2022/12/21 11:29:55;;;;;;;4.13;0.90;;;17.60;99.90;;;;;;4939110;29;20175;-73
2022/12/21 11:32:24;;;;;;;1.50;0.80;;;17.60;99.90;;;;;;4939229;29;20615;-73
2022/12/21 11:35:05;;;;;;;4.03;0.93;;;17.50;99.90;;;;;;4938134;29;20185;-74
2022/12/21 11:37:46;;;;;;;5.83;1.10;;;17.50;99.90;;;;;;4938737;29;20590;-74
2022/12/21 11:40:20;;;;;;;3.63;0.70;;;17.60;99.90;;;;;;4939100;29;20207;-73
2022/12/21 11:43:00;;;;;;;1.83;0.93;;;17.70;99.90;;;;;;4937273;29;20196;-73
2022/12/21 11:45:51;;;;;;;2.57;1.10;;;17.70;99.90;;;;;;4937859;29;20713;-74
2022/12/21 11:48:32;;;;;;;3.03;0.80;;;17.70;99.90;;;;;;4938692;29;20287;-73
2022/12/21 11:51:28;;;;;;;2.77;0.70;;;17.80;99.90;;;;;;4938745;29;20182;-73
2022/12/21 11:54:25;;;;;;;5.00;1.00;;;17.70;99.90;;;;;;4937113;29;20177;-74
2022/12/21 11:57:16;;;;;;;1.23;0.73;;;17.70;99.90;;;;;;4938529;29;20311;-74
2022/12/21 12:00:05;;;;;;;2.37;1.03;;;17.70;99.90;;;;;;4931640;29;20188;-75
2022/12/21 12:02:51;;;;;;;2.93;1.07;;;17.60;99.90;;;;;;4936730;29;20248;-74
2022/12/21 12:05:56;;;;;;;3.17;0.97;;;17.50;99.90;;;;;;4938598;29;20177;-73
2022/12/21 12:09:00;;;;;;;2.70;0.97;;;17.50;99.90;;;;;;4916386;29;20279;-72
2022/12/21 12:11:40;;;;;;;5.83;1.50;;;17.60;99.90;;;;;;4938793;29;20183;-71
2022/12/21 12:14:15;;;;;;;5.23;1.63;;;17.70;99.90;;;;;;4938504;29;20187;-73
2022/12/21 12:17:18;;;;;;;4.20;1.03;;;17.70;99.90;;;;;;4938159;29;20168;-71
2022/12/21 12:20:13;;;;;;;5.13;1.20;;;17.70;99.90;;;;;;4934830;29;20196;-71
2022/12/21 12:23:25;;;;;;;5.47;1.10;;;17.70;99.90;;;;;;4937994;29;20179;-73
2022/12/21 12:26:19;;;;;;;5.40;0.80;;;17.70;99.90;;;;;;4937959;29;20195;-72
2022/12/21 12:29:23;;;;;;;6.17;0.93;;;17.70;99.90;;;;;;4915638;29;20260;-74
2022/12/21 12:31:54;;;;;;;4.90;1.10;;;17.60;99.90;;;;;;4936797;29;20192;-71
2022/12/21 12:34:45;;;;;;;1.67;0.83;;;17.60;99.90;;;;;;4936510;29;20541;-73
2022/12/21 12:37:36;;;;;;;5.27;1.03;;;17.50;99.90;;;;;;4937776;29;20522;-72
2022/12/21 12:40:22;;;;;;;5.97;0.97;;;17.50;99.90;;;;;;4920586;29;20219;-73
2022/12/21 12:43:20;;;;;;;2.47;0.97;;;17.50;99.90;;;;;;4937912;29;20189;-74
2022/12/21 12:46:13;;;;;;;2.50;0.90;;;17.40;99.90;;;;;;4937229;29;20184;-74
2022/12/21 12:49:15;;;;;;;2.07;0.70;;;17.40;99.90;;;;;;4931207;29;20236;-73
2022/12/21 12:51:59;;;;;;;6.90;1.20;;;17.40;99.90;;;;;;4936642;29;20180;-71
2022/12/21 12:54:35;;;;;;;2.83;0.67;;;17.40;99.90;;;;;;4937423;29;20216;-73
2022/12/21 12:57:21;;;;;;;3.90;1.07;;;17.40;99.90;;;;;;4937009;29;20225;-72
2022/12/21 13:00:11;;;;;;;2.80;0.83;;;17.40;99.90;;;;;;4936337;29;20665;-73
2022/12/21 13:02:59;;;;;;;4.27;0.80;;;17.30;99.90;;;;;;4937489;29;20228;-71
2022/12/21 13:05:48;;;;;;;4.23;0.90;;;17.30;99.90;;;;;;4918843;29;20590;-72
2022/12/21 13:08:40;;;;;;;6.07;0.90;;;17.30;99.90;;;;;;4919118;29;20623;-72
2022/12/21 13:11:27;;;;;;;2.67;0.90;;;17.20;99.90;;;;;;4918262;29;20184;-72
2022/12/21 13:14:01;;;;;;;6.80;1.07;;;17.20;99.90;;;;;;4912169;29;20232;-73
2022/12/21 13:16:40;;;;;;;5.13;1.00;;;17.20;99.90;;;;;;4937358;29;20709;-71
2022/12/21 13:19:20;;;;;;;4.07;1.10;;;17.20;99.90;;;;;;4937639;29;20175;-72
2022/12/21 13:21:52;;;;;;;3.27;0.97;;;17.20;99.90;;;;;;4937406;29;20183;-73
2022/12/21 13:24:25;;;;;;;3.87;0.90;;;17.10;99.90;;;;;;4936563;29;20544;-71
2022/12/21 13:26:57;;;;;;;6.67;1.67;;;17.10;99.90;;;;;;4936593;29;20185;-72
2022/12/21 13:29:45;;;;;;;3.87;1.20;;;17.10;99.90;;;;;;4935780;29;20208;-73
2022/12/21 13:32:17;;;;;;;2.37;0.80;;;17.00;99.90;;;;;;4936412;29;20197;-73
2022/12/21 13:34:57;;;;;;;2.07;1.50;;;17.00;99.90;;;;;;4936505;29;20176;-73
2022/12/21 13:37:26;;;;;;;2.67;0.90;;;17.00;99.90;;;;;;4936865;29;20236;-74
2022/12/21 13:40:10;;;;;;;5.67;0.97;;;16.90;99.90;;;;;;4936692;29;20548;-72